Time;durP1;ratioP1;P1;durP2;ratioP2;P2;SDS_P1;SDS_P2;PMS_P1;PMS_P2;Temp;Humidity;BMP_temperature;BMP_pressure;BME280_temperature;BME280_humidity;BME280_pressure;Samples;Min_cycle;Max_cycle;Signal;HPM_P1;HPM_P2
2023/10/07 00:01:34;;;;;;;2.28;1.00;;;;;;;17.13;57.96;152998.88;10540942;28;20098;-74
2023/10/07 00:06:38;;;;;;;2.30;1.13;;;;;;;17.04;58.16;152975.47;10522547;28;20060;-74
2023/10/07 00:11:45;;;;;;;1.88;1.10;;;;;;;16.99;58.59;152961.22;10543174;28;20396;-74
2023/10/07 00:16:47;;;;;;;2.30;1.27;;;;;;;17.02;58.73;152969.03;10541039;28;20428;-74
2023/10/07 00:21:55;;;;;;;1.60;1.10;;;;;;;17.10;58.38;152991.06;10541569;28;20072;-75
2023/10/07 00:26:59;;;;;;;1.33;0.77;;;;;;;17.10;58.44;152991.06;10522738;28;20075;-75
2023/10/07 00:32:04;;;;;;;1.33;0.95;;;;;;;17.02;58.83;152970.31;10524088;28;20091;-76
2023/10/07 00:37:06;;;;;;;2.10;1.58;;;;;;;16.96;58.87;152953.47;10522436;28;20051;-75
2023/10/07 00:42:10;;;;;;;1.70;1.05;;;;;;;16.93;59.38;152946.97;10522094;28;20515;-75
2023/10/07 00:47:13;;;;;;;1.67;0.98;;;;;;;16.84;59.60;152923.63;10540089;28;20467;-75
2023/10/07 00:52:28;;;;;;;1.50;1.05;;;;;;;16.83;59.54;152922.34;10527150;28;20051;-74
2023/10/07 01:02:33;;;;;;;1.13;0.63;;;;;;;16.67;60.49;152880.75;10547543;28;20093;-74
2023/10/07 01:07:34;;;;;;;1.77;0.90;;;;;;;16.80;60.26;152913.25;10528900;28;20048;-74
2023/10/07 01:12:37;;;;;;;1.58;0.88;;;;;;;16.70;60.87;152887.28;10529301;28;20046;-74
2023/10/07 01:17:41;;;;;;;2.00;1.05;;;;;;;16.62;61.27;152867.81;10530884;28;20529;-74
2023/10/07 01:23:01;;;;;;;2.05;1.00;;;;;;;16.69;61.01;152885.97;10528752;28;20139;-75
2023/10/07 01:28:04;;;;;;;1.63;1.00;;;;;;;16.67;61.22;152880.75;10511382;28;20047;-75
2023/10/07 01:33:24;;;;;;;4.10;1.02;;;;;;;16.52;62.06;152843.19;10528563;28;20066;-74
2023/10/07 01:38:27;;;;;;;1.35;0.80;;;;;;;16.53;62.04;152845.75;10530607;28;20048;-74
2023/10/07 01:43:30;;;;;;;2.20;1.00;;;;;;;16.50;62.33;152836.66;10545952;28;20033;-74
2023/10/07 01:48:35;;;;;;;3.03;1.02;;;;;;;16.54;62.30;152847.03;10546012;28;20061;-75
2023/10/07 01:53:38;;;;;;;1.10;0.75;;;;;;;16.54;62.41;152848.34;10527619;28;20507;-75
2023/10/07 01:58:40;;;;;;;1.15;0.68;;;;;;;16.49;62.74;152834.09;10545960;28;20044;-75
2023/10/07 02:03:45;;;;;;;1.80;0.80;;;;;;;16.53;62.52;152844.47;10528333;28;20458;-75
2023/10/07 02:08:47;;;;;;;2.00;1.00;;;;;;;16.36;62.95;152802.97;10544914;28;20044;-75
2023/10/07 02:13:50;;;;;;;2.05;1.10;;;;;;;16.53;62.76;152844.47;10545007;28;20047;-75
2023/10/07 02:18:52;;;;;;;2.20;0.70;;;;;;;16.57;62.57;152856.13;10544658;28;20044;-74
2023/10/07 02:23:54;;;;;;;1.60;1.00;;;;;;;16.56;62.65;152853.56;10528174;28;20051;-75
2023/10/07 02:29:04;;;;;;;3.00;0.93;;;;;;;16.52;62.82;152841.88;10544374;28;20047;-75
2023/10/07 02:34:09;;;;;;;1.33;0.90;;;;;;;16.37;63.11;152805.53;10543766;28;20044;-75
2023/10/07 02:39:24;;;;;;;2.60;1.00;;;;;;;16.58;62.21;152857.44;10544473;28;20511;-75
2023/10/07 02:44:41;;;;;;;1.88;1.45;;;;;;;16.50;62.59;152837.97;10530118;28;20036;-74
2023/10/07 02:49:47;;;;;;;1.90;0.95;;;;;;;16.54;62.29;152848.34;10508808;28;20573;-74
2023/10/07 02:55:12;;;;;;;1.88;1.00;;;;;;;16.40;63.10;152812.03;10543595;28;20048;-74
2023/10/07 03:00:18;;;;;;;1.55;1.08;;;;;;;16.37;62.95;152805.53;10543127;28;20385;-74
2023/10/07 03:05:29;;;;;;;2.33;1.10;;;;;;;16.39;62.83;152809.47;10544819;28;20040;-74
2023/10/07 03:10:43;;;;;;;2.05;0.85;;;;;;;16.30;62.95;152786.13;10543194;28;20074;-74
2023/10/07 03:15:46;;;;;;;1.92;0.95;;;;;;;16.30;63.03;152786.13;10540688;28;20051;-74
2023/10/07 03:21:00;;;;;;;1.45;1.10;;;;;;;16.32;62.83;152791.28;10541870;28;20052;-74
2023/10/07 03:31:11;;;;;;;2.25;1.10;;;;;;;16.34;62.58;152797.78;10542691;28;20051;-75
2023/10/07 03:41:23;;;;;;;1.48;0.93;;;;;;;16.25;62.89;152773.16;10541781;28;20101;-75
2023/10/07 03:46:27;;;;;;;2.85;1.20;;;;;;;16.17;63.03;152752.41;10541607;28;20399;-75
2023/10/07 03:51:30;;;;;;;2.22;1.02;;;;;;;16.21;63.08;152764.09;10542781;28;20044;-75
2023/10/07 03:56:34;;;;;;;1.75;1.00;;;;;;;16.15;63.28;152749.78;10522463;28;20048;-75
2023/10/07 04:01:42;;;;;;;1.83;1.35;;;;;;;16.20;62.89;152760.16;10523176;28;20071;-75
2023/10/07 04:06:47;;;;;;;3.58;1.40;;;;;;;16.10;63.14;152735.53;10522981;28;20047;-74
2023/10/07 04:11:49;;;;;;;2.80;1.27;;;;;;;15.98;63.92;152705.75;10543011;28;20048;-75
2023/10/07 04:16:52;;;;;;;1.63;1.02;;;;;;;15.90;63.92;152685.00;10522837;28;20043;-74
2023/10/07 04:21:55;;;;;;;2.25;1.10;;;;;;;15.69;64.97;152630.56;10541505;28;20422;-75
2023/10/07 04:27:03;;;;;;;1.35;1.05;;;;;;;15.66;65.51;152622.78;10545761;28;20075;-75
2023/10/07 04:32:20;;;;;;;2.67;1.33;;;;;;;15.54;65.46;152592.94;10550808;28;20047;-74
2023/10/07 04:37:29;;;;;;;2.90;1.10;;;;;;;15.55;65.77;152596.81;10530843;28;20039;-74
2023/10/07 04:42:37;;;;;;;1.75;1.40;;;;;;;15.52;66.10;152589.03;10549432;28;20112;-75
2023/10/07 04:47:46;;;;;;;2.42;1.20;;;;;;;15.60;65.49;152609.78;10548301;28;20048;-74
2023/10/07 04:52:51;;;;;;;2.25;1.00;;;;;;;15.40;66.43;152557.91;10549782;28;20032;-75
2023/10/07 05:02:59;;;;;;;2.95;1.33;;;;;;;15.56;66.00;152599.41;10547720;28;20040;-74
2023/10/07 05:08:11;;;;;;;5.38;1.60;;;;;;;15.60;65.36;152609.78;10548535;28;20040;-74
2023/10/07 05:13:13;;;;;;;2.40;1.00;;;;;;;15.48;65.87;152578.66;10547511;28;20442;-74
2023/10/07 05:18:16;;;;;;;2.20;1.10;;;;;;;15.32;66.72;152537.22;10548636;28;20047;-74
2023/10/07 05:23:18;;;;;;;2.03;1.30;;;;;;;15.40;66.03;152557.91;10546938;28;20075;-74
2023/10/07 05:28:21;;;;;;;1.88;1.30;;;;;;;15.41;65.81;152560.53;10546568;28;20102;-74
2023/10/07 05:33:25;;;;;;;1.83;0.98;;;;;;;15.34;66.25;152543.69;10546531;28;20039;-73
2023/10/07 05:38:28;;;;;;;2.45;1.05;;;;;;;15.35;66.48;152546.25;10528437;28;20048;-74
2023/10/07 05:43:31;;;;;;;1.98;1.00;;;;;;;15.27;66.87;152524.22;10527911;28;20089;-74
2023/10/07 05:48:37;;;;;;;2.65;1.30;;;;;;;15.34;66.29;152543.69;10545550;28;20036;-75
2023/10/07 05:53:42;;;;;;;1.98;1.35;;;;;;;15.32;66.17;152537.22;10546272;28;20064;-74
2023/10/07 05:58:45;;;;;;;2.65;1.10;;;;;;;15.36;65.79;152547.53;10547328;28;20044;-74
2023/10/07 06:03:47;;;;;;;2.28;1.20;;;;;;;15.42;65.53;152563.13;10547149;28;20491;-75
2023/10/07 06:08:50;;;;;;;1.70;1.00;;;;;;;15.29;65.83;152529.44;10546014;28;20542;-73
2023/10/07 06:13:52;;;;;;;2.47;1.20;;;;;;;15.43;65.20;152565.72;10545210;28;20502;-73
2023/10/07 06:18:54;;;;;;;2.70;1.13;;;;;;;15.46;64.73;152573.50;10545497;28;20056;-74
2023/10/07 06:24:00;;;;;;;1.55;1.00;;;;;;;15.51;63.85;152586.44;10529927;28;20522;-74
2023/10/07 06:29:05;;;;;;;1.38;0.88;;;;;;;15.54;63.60;152592.94;10527233;28;20079;-70
2023/10/07 06:34:14;;;;;;;2.22;1.40;;;;;;;15.64;62.58;152620.19;10526977;28;20046;-73
2023/10/07 06:39:19;;;;;;;2.35;1.30;;;;;;;15.69;62.47;152631.84;10545078;28;20506;-71
2023/10/07 06:44:22;;;;;;;2.92;1.35;;;;;;;15.89;61.42;152682.38;10527754;28;20067;-73
2023/10/07 06:49:24;;;;;;;1.83;1.13;;;;;;;16.22;60.03;152765.38;10526043;28;20381;-72
2023/10/07 06:54:32;;;;;;;2.53;1.30;;;;;;;16.42;59.10;152815.91;10542956;28;20068;-70
2023/10/07 06:59:34;;;;;;;1.83;1.08;;;;;;;16.56;58.27;152852.25;10543655;28;20400;-70
2023/10/07 07:04:37;;;;;;;2.80;1.33;;;;;;;16.70;57.15;152888.56;10526351;28;20401;-71
2023/10/07 07:14:52;;;;;;;1.52;1.10;;;;;;;16.52;58.03;152843.19;10543247;28;20043;-71
2023/10/07 07:25:23;;;;;;;2.40;1.10;;;;;;;16.45;58.23;152825.00;10541975;28;20047;-70
2023/10/07 07:30:31;;;;;;;1.95;1.17;;;;;;;16.58;58.11;152857.44;10543917;28;20135;-70
2023/10/07 07:35:39;;;;;;;2.22;0.98;;;;;;;16.70;57.32;152888.56;10541922;28;20036;-70
2023/10/07 07:40:43;;;;;;;2.00;1.10;;;;;;;16.65;57.50;152875.59;10542516;28;20450;-70
2023/10/07 07:45:46;;;;;;;2.28;1.30;;;;;;;16.60;58.11;152862.59;10523245;28;20071;-70
2023/10/07 07:50:48;;;;;;;1.58;1.20;;;;;;;16.50;58.76;152836.66;10541346;28;20443;-69
2023/10/07 07:55:55;;;;;;;1.58;0.90;;;;;;;16.43;59.44;152819.84;10540731;28;20044;-70
2023/10/07 08:01:01;;;;;;;2.65;0.80;;;;;;;16.19;64.72;152757.56;10523224;28;20040;-70
2023/10/07 08:06:04;;;;;;;2.43;1.10;;;;;;;15.86;66.16;152674.63;10506592;28;20052;-69
2023/10/07 08:11:07;;;;;;;1.63;0.90;;;;;;;15.84;67.13;152669.41;10542306;28;20044;-71
2023/10/07 08:16:15;;;;;;;1.50;1.00;;;;;;;15.72;69.06;152638.34;10540858;28;20109;-71
2023/10/07 08:21:17;;;;;;;2.80;1.20;;;;;;;15.85;68.64;152673.34;10540693;28;20040;-70
2023/10/07 08:26:23;;;;;;;1.33;0.90;;;;;;;15.83;68.59;152668.13;10541623;28;20560;-71
2023/10/07 08:36:43;;;;;;;2.67;1.27;;;;;;;15.80;72.21;152660.34;10540512;28;20044;-70
2023/10/07 08:41:52;;;;;;;2.92;1.13;;;;;;;15.83;73.24;152666.84;10540116;28;20098;-71
2023/10/07 08:47:03;;;;;;;1.95;0.98;;;;;;;15.86;74.32;152674.63;10520389;28;20044;-70
2023/10/07 08:52:08;;;;;;;1.85;1.25;;;;;;;16.04;74.27;152721.28;10508834;28;20055;-70
2023/10/07 08:57:34;;;;;;;1.58;1.15;;;;;;;16.17;73.90;152753.72;10515920;28;20040;-70
2023/10/07 09:02:39;;;;;;;1.88;1.17;;;;;;;16.36;72.35;152801.66;10508750;28;20036;-71
2023/10/07 09:07:48;;;;;;;1.85;1.00;;;;;;;16.53;71.92;152844.47;10521340;28;20122;-71
2023/10/07 09:12:50;;;;;;;1.65;1.00;;;;;;;16.72;71.42;152892.44;10526389;28;20392;-70
2023/10/07 09:18:05;;;;;;;2.00;1.10;;;;;;;16.88;69.55;152935.28;10548945;28;20040;-71
2023/10/07 09:23:14;;;;;;;1.83;1.20;;;;;;;16.99;68.45;152961.22;10529434;28;20074;-70
2023/10/07 09:28:30;;;;;;;1.90;1.10;;;;;;;17.10;68.00;152989.78;10506446;28;20094;-72
2023/10/07 09:33:35;;;;;;;2.97;1.45;;;;;;;17.08;67.43;152985.88;10487549;28;20106;-70
2023/10/07 09:38:41;;;;;;;1.88;1.08;;;;;;;17.30;66.46;153040.38;10487887;28;20076;-71
2023/10/07 09:43:47;;;;;;;;;;;;;;;17.39;66.15;153063.72;10505172;28;20052;-71
2023/10/07 09:48:51;;;;;;;2.28;1.20;;;;;;;17.53;65.18;153100.09;10504443;28;19963;-70
2023/10/07 09:54:01;;;;;;;2.08;0.98;;;;;;;17.73;65.47;153149.38;10505073;28;20040;-72
2023/10/07 09:59:22;;;;;;;2.03;1.20;;;;;;;17.95;64.09;153205.25;10505820;28;20135;-70
2023/10/07 10:04:40;;;;;;;1.38;0.95;;;;;;;17.94;64.19;153203.94;10485602;28;20115;-71
2023/10/07 10:10:04;;;;;;;2.15;1.38;;;;;;;18.00;64.30;153218.22;10485756;28;20080;-71
2023/10/07 10:20:27;;;;;;;1.85;1.10;;;;;;;17.80;64.81;153167.63;10503869;28;20412;-70
2023/10/07 10:30:50;;;;;;;2.42;1.33;;;;;;;17.75;65.77;153154.59;10502099;28;20047;-71
2023/10/07 10:35:57;;;;;;;2.28;1.33;;;;;;;17.82;65.63;153172.78;10485052;28;20079;-71
2023/10/07 10:41:00;;;;;;;1.83;1.00;;;;;;;17.94;65.93;153202.66;10503509;28;20381;-72
2023/10/07 10:46:07;;;;;;;2.13;1.02;;;;;;;17.88;65.87;153188.34;10487565;28;20062;-72
2023/10/07 10:51:09;;;;;;;1.90;1.20;;;;;;;17.74;66.89;153153.31;10504068;28;20535;-72
2023/10/07 10:56:11;;;;;;;2.30;0.90;;;;;;;17.77;67.83;153161.09;10484355;28;20036;-71
2023/10/07 11:01:13;;;;;;;2.13;1.13;;;;;;;17.80;68.20;153167.63;10501253;28;20046;-72
2023/10/07 11:06:15;;;;;;;1.50;1.05;;;;;;;17.81;68.36;153170.19;10502658;28;20074;-71
2023/10/07 11:11:17;;;;;;;1.63;1.02;;;;;;;17.86;68.33;153184.47;10482647;28;20044;-71
2023/10/07 11:16:19;;;;;;;1.48;1.05;;;;;;;17.92;68.43;153198.72;10500054;28;20047;-71
2023/10/07 11:21:23;;;;;;;1.13;0.80;;;;;;;17.94;68.49;153202.66;10481907;28;20083;-72
2023/10/07 11:26:32;;;;;;;2.42;1.27;;;;;;;17.91;68.92;153196.16;10484200;28;20040;-71
2023/10/07 11:31:34;;;;;;;1.77;1.17;;;;;;;18.04;68.61;153228.59;10501363;28;20036;-71
2023/10/07 11:36:47;;;;;;;2.38;1.02;;;;;;;18.17;68.68;153262.34;10481306;28;20040;-72
2023/10/07 11:41:52;;;;;;;2.58;0.82;;;;;;;18.27;68.19;153288.31;10499721;28;20041;-72
2023/10/07 11:46:54;;;;;;;2.25;1.13;;;;;;;18.33;68.37;153303.91;10499353;28;20067;-71
2023/10/07 11:51:56;;;;;;;1.17;1.00;;;;;;;18.46;68.62;153336.38;10500468;28;20048;-72
2023/10/07 11:56:58;;;;;;;3.50;1.10;;;;;;;18.55;68.91;153359.75;10498858;28;20048;-71
2023/10/07 12:02:01;;;;;;;2.42;1.33;;;;;;;18.74;68.08;153406.56;10499452;28;20123;-71
2023/10/07 12:07:03;;;;;;;1.83;0.90;;;;;;;18.76;68.06;153413.00;10499528;28;20484;-71
2023/10/07 12:12:09;;;;;;;1.27;0.95;;;;;;;18.78;68.09;153418.22;10500645;28;20051;-72
2023/10/07 12:17:11;;;;;;;1.48;0.90;;;;;;;18.84;68.27;153432.50;10498596;28;20405;-73
2023/10/07 12:22:15;;;;;;;1.20;0.82;;;;;;;18.86;67.15;153437.72;10497535;28;20045;-70
2023/10/07 12:27:17;;;;;;;1.88;0.90;;;;;;;18.98;67.28;153468.88;10497895;28;20048;-72
2023/10/07 12:32:19;;;;;;;2.05;1.10;;;;;;;18.94;66.33;153457.19;10481759;28;20045;-72
2023/10/07 12:37:21;;;;;;;1.40;1.00;;;;;;;19.03;66.06;153480.56;10498013;28;20045;-72
2023/10/07 12:42:25;;;;;;;1.52;0.85;;;;;;;19.13;65.92;153506.56;10480199;28;20500;-71
2023/10/07 12:47:29;;;;;;;1.92;1.00;;;;;;;19.04;65.76;153483.19;10467243;28;20106;-71
2023/10/07 12:52:31;;;;;;;2.20;1.13;;;;;;;19.07;65.40;153490.97;10505889;28;20049;-71
2023/10/07 12:57:33;;;;;;;2.03;1.27;;;;;;;19.16;65.38;153514.34;10506907;28;20083;-71
2023/10/07 13:02:37;;;;;;;1.70;1.05;;;;;;;19.12;65.69;153503.94;10504920;28;20500;-71
2023/10/07 13:07:42;;;;;;;1.50;0.88;;;;;;;19.23;65.37;153532.53;10504979;28;20040;-72
2023/10/07 13:12:44;;;;;;;2.00;1.48;;;;;;;19.20;65.03;153523.44;10505021;28;20500;-72
2023/10/07 13:17:47;;;;;;;5.85;1.20;;;;;;;19.08;65.29;153494.88;10506535;28;20040;-72
2023/10/07 13:22:50;;;;;;;1.05;0.80;;;;;;;19.20;65.70;153523.44;10504627;28;20055;-71
2023/10/07 13:27:56;;;;;;;1.83;0.85;;;;;;;19.18;65.90;153519.56;10485866;28;20044;-72
2023/10/07 13:32:57;;;;;;;1.50;1.10;;;;;;;19.25;65.76;153536.41;10504469;28;20037;-72
2023/10/07 13:38:01;;;;;;;2.17;0.93;;;;;;;19.39;65.37;153574.13;10505300;28;20500;-72
2023/10/07 13:43:04;;;;;;;1.20;0.95;;;;;;;19.30;66.78;153549.41;10504568;28;20045;-72
2023/10/07 13:48:07;;;;;;;1.50;0.80;;;;;;;19.34;65.94;153561.09;10503735;28;20108;-73
2023/10/07 13:53:12;;;;;;;1.73;0.80;;;;;;;19.41;66.24;153578.00;10504202;28;20041;-71
2023/10/07 13:58:15;;;;;;;1.92;1.02;;;;;;;19.39;66.86;153572.84;10502515;28;20390;-72
2023/10/07 14:03:31;;;;;;;2.40;1.25;;;;;;;19.45;65.92;153587.13;10486894;28;20049;-71
2023/10/07 14:08:36;;;;;;;1.35;0.95;;;;;;;19.42;66.73;153580.59;10503634;28;20040;-72
2023/10/07 14:13:40;;;;;;;2.50;0.95;;;;;;;19.52;66.52;153606.63;10502376;28;20047;-72
2023/10/07 14:18:42;;;;;;;1.52;0.88;;;;;;;19.35;66.83;153562.44;10503019;28;20067;-72
2023/10/07 14:23:43;;;;;;;1.92;1.42;;;;;;;19.40;66.75;153575.44;10503567;28;20420;-72
2023/10/07 14:28:45;;;;;;;2.30;1.20;;;;;;;19.30;66.68;153550.75;10502165;28;20539;-72
2023/10/07 14:33:48;;;;;;;2.60;1.35;;;;;;;19.26;66.29;153540.34;10502305;28;20045;-73
2023/10/07 14:38:53;;;;;;;1.17;0.88;;;;;;;19.14;67.25;153509.16;10483868;28;20098;-72
2023/10/07 14:43:59;;;;;;;2.22;1.10;;;;;;;19.09;67.35;153496.19;10504254;28;20488;-73
2023/10/07 14:49:01;;;;;;;1.75;1.10;;;;;;;19.07;67.18;153490.97;10502380;28;20040;-72
2023/10/07 14:54:03;;;;;;;3.13;1.35;;;;;;;18.99;67.51;153470.16;10483084;28;20094;-73
2023/10/07 14:59:04;;;;;;;1.77;0.90;;;;;;;18.96;67.65;153463.69;10500414;28;20143;-72
2023/10/07 15:04:06;;;;;;;1.42;1.20;;;;;;;19.04;67.33;153484.50;10501837;28;20046;-72
2023/10/07 15:09:08;;;;;;;1.70;1.00;;;;;;;18.96;67.44;153463.69;10502112;28;20045;-72
2023/10/07 15:14:11;;;;;;;4.40;0.95;;;;;;;19.00;67.45;153474.09;10500430;28;20040;-72
2023/10/07 15:19:17;;;;;;;1.55;1.08;;;;;;;18.97;67.24;153466.28;10465824;28;20488;-74
2023/10/07 15:24:19;;;;;;;1.83;1.00;;;;;;;18.90;67.58;153449.41;10535731;28;20529;-73
2023/10/07 15:29:21;;;;;;;1.85;1.00;;;;;;;18.97;67.00;153465.00;10564140;28;20065;-72
2023/10/07 15:34:24;;;;;;;1.40;0.95;;;;;;;18.90;67.06;153448.06;10562484;28;20071;-73
2023/10/07 15:39:28;;;;;;;1.85;1.00;;;;;;;18.87;67.35;153441.63;10542482;28;20073;-72
2023/10/07 15:44:30;;;;;;;1.45;0.85;;;;;;;18.86;67.46;153437.72;10543071;28;20455;-72
2023/10/07 15:49:34;;;;;;;2.78;1.23;;;;;;;18.77;67.98;153414.31;10527656;28;20044;-73
2023/10/07 15:54:36;;;;;;;1.42;0.93;;;;;;;18.71;67.72;153398.75;10543397;28;20093;-73
2023/10/07 15:59:41;;;;;;;2.33;1.40;;;;;;;18.63;67.96;153379.19;10543299;28;20044;-73
2023/10/07 16:04:43;;;;;;;2.67;1.52;;;;;;;18.58;68.06;153367.50;10543628;28;20047;-73
2023/10/07 16:09:45;;;;;;;2.55;1.40;;;;;;;18.49;68.26;153344.16;10543905;28;20043;-72
2023/10/07 16:14:47;;;;;;;2.15;1.30;;;;;;;18.44;68.47;153331.16;10525235;28;20093;-72
2023/10/07 16:19:49;;;;;;;2.88;2.03;;;;;;;18.41;68.32;153323.34;10523692;28;20059;-72
2023/10/07 16:24:51;;;;;;;2.08;1.35;;;;;;;18.44;68.05;153329.88;10542475;28;20117;-72
2023/10/07 16:29:53;;;;;;;1.63;1.42;;;;;;;18.43;67.67;153328.56;10524394;28;20040;-73
2023/10/07 16:34:55;;;;;;;1.98;1.10;;;;;;;18.41;67.81;153323.34;10545960;28;20381;-72
2023/10/07 16:39:57;;;;;;;3.00;1.65;;;;;;;18.41;67.77;153323.34;10543350;28;20043;-72
2023/10/07 16:45:02;;;;;;;2.03;1.00;;;;;;;18.33;68.26;153303.91;10526237;28;20089;-73
2023/10/07 16:50:09;;;;;;;1.98;1.10;;;;;;;18.34;68.29;153305.22;10523100;28;20138;-71
2023/10/07 16:55:12;;;;;;;;;;;;;;;18.28;68.11;153289.59;10537329;28;20040;-71
2023/10/07 17:00:16;;;;;;;2.13;0.88;;;;;;;18.27;68.11;153287.00;10526782;28;19919;-72
2023/10/07 17:05:18;;;;;;;2.63;1.20;;;;;;;18.29;67.80;153292.25;10543152;28;20393;-72
2023/10/07 17:10:20;;;;;;;1.98;1.30;;;;;;;18.28;67.65;153290.94;10542828;28;20101;-72
2023/10/07 17:15:21;;;;;;;2.85;1.30;;;;;;;18.43;66.76;153327.28;10542981;28;20036;-72
2023/10/07 17:20:23;;;;;;;2.85;1.25;;;;;;;18.39;66.96;153318.19;10542142;28;20054;-71
2023/10/07 17:25:29;;;;;;;1.92;1.10;;;;;;;18.47;66.48;153338.97;10522702;28;20036;-73
2023/10/07 17:30:31;;;;;;;3.10;1.50;;;;;;;18.49;66.47;153342.84;10539976;28;20093;-71
2023/10/07 17:35:37;;;;;;;2.67;1.25;;;;;;;18.47;66.70;153338.97;10544421;28;20044;-72
2023/10/07 17:40:41;;;;;;;2.15;1.05;;;;;;;18.40;66.51;153322.06;10551449;28;20126;-72
2023/10/07 17:45:43;;;;;;;2.38;1.00;;;;;;;18.43;66.50;153328.56;10548857;28;20032;-72
2023/10/07 17:50:45;;;;;;;2.45;1.20;;;;;;;18.29;67.18;153293.53;10549263;28;20040;-73
2023/10/07 17:55:48;;;;;;;0.93;0.82;;;;;;;18.25;67.36;153283.13;10547875;28;20036;-73
2023/10/07 18:00:50;;;;;;;2.22;1.10;;;;;;;18.28;67.21;153289.59;10550731;28;20060;-72
2023/10/07 18:06:02;;;;;;;3.72;1.20;;;;;;;18.27;67.22;153287.00;10531077;28;20085;-72
2023/10/07 18:11:05;;;;;;;2.30;1.23;;;;;;;18.25;67.07;153281.84;10550978;28;20043;-72
2023/10/07 18:16:07;;;;;;;1.95;1.10;;;;;;;18.33;66.56;153303.91;10530656;28;20039;-72
2023/10/07 18:21:09;;;;;;;4.60;1.08;;;;;;;18.27;66.92;153287.00;10548205;28;20040;-72
2023/10/07 18:26:11;;;;;;;2.05;1.20;;;;;;;18.22;67.32;153274.03;10547730;28;20114;-73
2023/10/07 18:31:15;;;;;;;2.63;1.00;;;;;;;18.25;66.80;153283.13;10547428;28;20123;-73
2023/10/07 18:36:18;;;;;;;1.42;0.88;;;;;;;18.36;66.31;153310.38;10548633;28;20039;-73
2023/10/07 18:41:19;;;;;;;1.40;1.05;;;;;;;18.25;66.57;153283.13;10546349;28;20527;-74
2023/10/07 18:46:21;;;;;;;1.67;1.20;;;;;;;18.35;66.11;153309.09;10548632;28;20073;-71
2023/10/07 18:51:23;;;;;;;3.65;1.20;;;;;;;18.34;66.69;153305.22;10547873;28;20480;-73
2023/10/07 18:56:26;;;;;;;2.08;1.13;;;;;;;18.44;65.72;153329.88;10545629;28;20040;-73
2023/10/07 19:01:28;;;;;;;1.65;1.20;;;;;;;18.41;65.85;153324.66;10545863;28;20052;-74
2023/10/07 19:06:30;;;;;;;1.98;1.50;;;;;;;18.44;65.48;153329.88;10547200;28;20036;-74
2023/10/07 19:11:32;;;;;;;3.10;1.50;;;;;;;18.38;65.64;153316.91;10530472;28;20499;-74
2023/10/07 19:16:35;;;;;;;1.88;1.20;;;;;;;18.41;65.67;153323.34;10527904;28;20044;-74
2023/10/07 19:21:37;;;;;;;2.13;1.10;;;;;;;18.37;66.20;153312.97;10544735;28;20048;-72
2023/10/07 19:26:38;;;;;;;2.67;1.63;;;;;;;18.33;66.08;153303.91;10546063;28;20089;-73
2023/10/07 19:31:40;;;;;;;1.88;1.30;;;;;;;18.27;66.78;153288.31;10546760;28;20047;-74
2023/10/07 19:36:42;;;;;;;2.20;1.10;;;;;;;18.32;66.33;153300.00;10544273;28;20127;-73
2023/10/07 19:41:47;;;;;;;2.05;1.08;;;;;;;18.32;66.22;153301.28;10543438;28;20071;-73
2023/10/07 19:46:49;;;;;;;2.53;1.30;;;;;;;18.39;65.90;153319.47;10525861;28;20051;-74
2023/10/07 19:51:51;;;;;;;1.92;1.25;;;;;;;18.36;66.05;153310.38;10547756;28;20032;-72
2023/10/07 19:56:53;;;;;;;1.40;1.13;;;;;;;18.46;65.43;153336.38;10543019;28;20059;-73
2023/10/07 20:01:55;;;;;;;1.83;1.00;;;;;;;18.53;65.23;153354.53;10543139;28;20093;-72
2023/10/07 20:06:57;;;;;;;2.28;1.20;;;;;;;18.50;65.62;153346.72;10542709;28;20040;-73
2023/10/07 20:11:59;;;;;;;2.15;1.20;;;;;;;18.48;65.43;153341.56;10546666;28;20074;-72
2023/10/07 20:17:02;;;;;;;1.50;0.98;;;;;;;18.59;65.14;153368.81;10541607;28;20036;-72
2023/10/07 20:22:03;;;;;;;2.08;1.42;;;;;;;18.63;64.83;153379.19;10542364;28;20043;-73
2023/10/07 20:27:05;;;;;;;3.17;1.35;;;;;;;18.68;64.65;153392.19;10523795;28;20093;-72
2023/10/07 20:32:07;;;;;;;2.13;1.52;;;;;;;18.63;64.77;153379.19;10544436;28;20070;-71
2023/10/07 20:37:11;;;;;;;2.03;1.00;;;;;;;18.72;64.66;153401.34;10526787;28;20048;-73
2023/10/07 20:42:13;;;;;;;3.50;1.30;;;;;;;18.70;64.52;153396.16;10524648;28;20046;-73
2023/10/07 20:47:15;;;;;;;2.22;1.35;;;;;;;18.72;64.73;153401.34;10550649;28;20062;-71
2023/10/07 20:52:18;;;;;;;2.08;1.17;;;;;;;18.83;64.48;153429.91;10542814;28;20176;-73
2023/10/07 20:57:21;;;;;;;1.65;1.20;;;;;;;18.76;64.76;153413.00;10526729;28;20415;-73
2023/10/07 21:02:23;;;;;;;1.98;1.17;;;;;;;18.76;64.74;153411.72;10541294;28;20040;-72
2023/10/07 21:07:25;;;;;;;5.03;1.02;;;;;;;18.77;64.63;153415.66;10543808;28;20032;-72
2023/10/07 21:12:27;;;;;;;1.92;1.00;;;;;;;18.85;64.88;153436.38;10548786;28;20051;-72
2023/10/07 21:17:29;;;;;;;2.08;1.42;;;;;;;18.72;66.27;153402.63;10532835;28;20044;-71
2023/10/07 21:22:31;;;;;;;1.58;1.20;;;;;;;18.73;66.40;153405.25;10531110;28;20135;-72
2023/10/07 21:27:33;;;;;;;1.75;0.90;;;;;;;18.85;65.18;153435.09;10547690;28;20454;-72
2023/10/07 21:32:35;;;;;;;2.83;1.20;;;;;;;18.79;65.51;153420.81;10547626;28;20048;-72
2023/10/07 21:37:37;;;;;;;1.30;1.02;;;;;;;18.88;64.69;153442.91;10549951;28;20047;-71
2023/10/07 21:42:39;;;;;;;1.63;1.10;;;;;;;18.93;65.06;153455.88;10548601;28;20060;-71
2023/10/07 21:47:41;;;;;;;2.35;1.33;;;;;;;19.06;63.97;153488.38;10548129;28;20055;-72
2023/10/07 21:52:43;;;;;;;2.50;1.30;;;;;;;18.89;64.49;153446.78;10546344;28;20043;-72
2023/10/07 21:57:45;;;;;;;4.20;1.30;;;;;;;18.98;63.96;153467.56;10545715;28;20081;-72
2023/10/07 22:02:48;;;;;;;1.52;1.13;;;;;;;18.93;64.39;153455.88;10548082;28;20495;-73
2023/10/07 22:07:51;;;;;;;1.83;1.17;;;;;;;18.95;64.42;153459.78;10546789;28;20062;-73
2023/10/07 22:12:53;;;;;;;1.80;1.20;;;;;;;18.87;65.27;153440.31;10546247;28;20179;-71
2023/10/07 22:17:56;;;;;;;1.55;1.00;;;;;;;18.89;65.18;153445.50;10527899;28;20048;-72
2023/10/07 22:22:58;;;;;;;3.25;1.50;;;;;;;19.02;64.71;153477.97;10528637;28;20504;-72
2023/10/07 22:28:00;;;;;;;1.65;1.05;;;;;;;19.02;64.67;153479.25;10528072;28;20044;-72
2023/10/07 22:33:04;;;;;;;1.63;1.13;;;;;;;19.01;64.87;153476.69;10527393;28;20119;-72
2023/10/07 22:38:12;;;;;;;3.28;1.10;;;;;;;19.00;64.77;153474.09;10544070;28;20032;-71
2023/10/07 22:43:16;;;;;;;2.15;1.08;;;;;;;19.05;64.68;153487.06;10545328;28;20133;-72
2023/10/07 22:48:20;;;;;;;1.77;1.02;;;;;;;19.06;64.81;153488.38;10544280;28;20051;-71
2023/10/07 22:53:35;;;;;;;1.95;1.23;;;;;;;18.93;65.46;153455.88;10525838;28;20043;-71
2023/10/07 22:58:39;;;;;;;1.73;1.00;;;;;;;18.89;65.82;153446.78;10543036;28;20058;-71
2023/10/07 23:03:48;;;;;;;2.30;1.27;;;;;;;18.96;65.55;153463.69;10543984;28;20044;-71
2023/10/07 23:14:17;;;;;;;1.50;1.02;;;;;;;18.88;66.27;153442.91;10543292;28;20044;-73
2023/10/07 23:19:24;;;;;;;2.05;1.20;;;;;;;18.93;66.07;153455.88;10536433;28;20036;-72
2023/10/07 23:29:48;;;;;;;2.20;1.15;;;;;;;18.93;66.86;153455.88;10544282;28;20039;-72
2023/10/07 23:34:59;;;;;;;2.42;1.20;;;;;;;18.86;67.32;153437.72;10542684;28;20095;-72
2023/10/07 23:40:12;;;;;;;2.60;1.30;;;;;;;18.84;67.63;153432.50;10542492;28;20078;-72
2023/10/07 23:45:14;;;;;;;1.70;1.42;;;;;;;18.93;67.50;153454.59;10542128;28;20075;-71
2023/10/07 23:50:16;;;;;;;2.67;1.20;;;;;;;18.87;68.02;153441.63;10544436;28;20050;-72
2023/10/07 23:55:30;;;;;;;2.75;1.70;;;;;;;18.93;68.03;153454.59;10541718;28;20060;-72
